sensor_id;sensor_type;location;lat;lon;timestamp;P1;durP1;ratioP1;P2;durP2;ratioP2
6547;SDS011;3307;52.416;16.862;2023-02-28T00:00:05;20.27;;;15.13;;
6547;SDS011;3307;52.416;16.862;2023-02-28T00:02:40;21.25;;;14.55;;
6547;SDS011;3307;52.416;16.862;2023-02-28T00:05:07;20.27;;;14.77;;
6547;SDS011;3307;52.416;16.862;2023-02-28T00:07:33;18.42;;;13.23;;
6547;SDS011;3307;52.416;16.862;2023-02-28T00:09:59;18.33;;;13.73;;
6547;SDS011;3307;52.416;16.862;2023-02-28T00:12:25;20.50;;;15.20;;
6547;SDS011;3307;52.416;16.862;2023-02-28T00:14:50;21.27;;;14.73;;
6547;SDS011;3307;52.416;16.862;2023-02-28T00:17:16;17.03;;;14.23;;
6547;SDS011;3307;52.416;16.862;2023-02-28T00:19:46;20.35;;;14.25;;
6547;SDS011;3307;52.416;16.862;2023-02-28T00:22:13;22.83;;;14.45;;
6547;SDS011;3307;52.416;16.862;2023-02-28T00:24:39;19.05;;;14.52;;
6547;SDS011;3307;52.416;16.862;2023-02-28T00:27:04;19.40;;;14.03;;
6547;SDS011;3307;52.416;16.862;2023-02-28T00:29:30;24.27;;;15.30;;
6547;SDS011;3307;52.416;16.862;2023-02-28T00:31:55;25.10;;;16.00;;
6547;SDS011;3307;52.416;16.862;2023-02-28T00:34:21;23.80;;;14.53;;
6547;SDS011;3307;52.416;16.862;2023-02-28T00:36:46;21.73;;;16.27;;
6547;SDS011;3307;52.416;16.862;2023-02-28T00:39:14;22.85;;;15.90;;
6547;SDS011;3307;52.416;16.862;2023-02-28T00:41:39;17.87;;;15.30;;
6547;SDS011;3307;52.416;16.862;2023-02-28T00:44:05;21.43;;;15.50;;
6547;SDS011;3307;52.416;16.862;2023-02-28T00:46:30;23.80;;;16.80;;
6547;SDS011;3307;52.416;16.862;2023-02-28T00:48:55;24.37;;;16.50;;
6547;SDS011;3307;52.416;16.862;2023-02-28T00:51:21;26.10;;;18.43;;
6547;SDS011;3307;52.416;16.862;2023-02-28T00:53:46;23.50;;;18.13;;
6547;SDS011;3307;52.416;16.862;2023-02-28T00:56:12;25.20;;;17.63;;
6547;SDS011;3307;52.416;16.862;2023-02-28T00:58:37;25.20;;;17.17;;
6547;SDS011;3307;52.416;16.862;2023-02-28T01:01:02;27.03;;;18.07;;
6547;SDS011;3307;52.416;16.862;2023-02-28T01:03:28;25.53;;;16.70;;
6547;SDS011;3307;52.416;16.862;2023-02-28T01:05:54;23.97;;;18.67;;
6547;SDS011;3307;52.416;16.862;2023-02-28T01:08:19;28.10;;;18.80;;
6547;SDS011;3307;52.416;16.862;2023-02-28T01:10:45;24.40;;;17.20;;
6547;SDS011;3307;52.416;16.862;2023-02-28T01:13:12;29.50;;;17.50;;
6547;SDS011;3307;52.416;16.862;2023-02-28T01:15:39;19.80;;;16.08;;
6547;SDS011;3307;52.416;16.862;2023-02-28T01:18:06;25.48;;;16.73;;
6547;SDS011;3307;52.416;16.862;2023-02-28T01:20:32;23.40;;;16.87;;
6547;SDS011;3307;52.416;16.862;2023-02-28T01:22:57;23.20;;;17.60;;
6547;SDS011;3307;52.416;16.862;2023-02-28T01:25:23;21.57;;;16.90;;
6547;SDS011;3307;52.416;16.862;2023-02-28T01:27:48;24.43;;;17.03;;
6547;SDS011;3307;52.416;16.862;2023-02-28T01:30:14;25.47;;;15.37;;
6547;SDS011;3307;52.416;16.862;2023-02-28T01:32:39;21.63;;;16.97;;
6547;SDS011;3307;52.416;16.862;2023-02-28T01:35:05;19.23;;;15.33;;
6547;SDS011;3307;52.416;16.862;2023-02-28T01:37:30;21.37;;;17.23;;
6547;SDS011;3307;52.416;16.862;2023-02-28T01:39:56;22.40;;;16.47;;
6547;SDS011;3307;52.416;16.862;2023-02-28T01:42:21;22.47;;;17.87;;
6547;SDS011;3307;52.416;16.862;2023-02-28T01:44:58;22.30;;;16.63;;
6547;SDS011;3307;52.416;16.862;2023-02-28T01:47:42;22.73;;;16.27;;
6547;SDS011;3307;52.416;16.862;2023-02-28T01:50:13;25.00;;;15.60;;
6547;SDS011;3307;52.416;16.862;2023-02-28T01:52:41;27.33;;;17.55;;
6547;SDS011;3307;52.416;16.862;2023-02-28T01:55:07;24.30;;;16.70;;
6547;SDS011;3307;52.416;16.862;2023-02-28T01:57:34;24.55;;;17.13;;
6547;SDS011;3307;52.416;16.862;2023-02-28T02:00:10;28.85;;;18.85;;
6547;SDS011;3307;52.416;16.862;2023-02-28T02:02:39;28.88;;;18.05;;
6547;SDS011;3307;52.416;16.862;2023-02-28T02:05:19;25.30;;;17.48;;
6547;SDS011;3307;52.416;16.862;2023-02-28T02:07:46;24.33;;;18.45;;
6547;SDS011;3307;52.416;16.862;2023-02-28T02:10:17;27.17;;;19.17;;
6547;SDS011;3307;52.416;16.862;2023-02-28T02:15:36;25.33;;;17.02;;
6547;SDS011;3307;52.416;16.862;2023-02-28T02:18:04;24.60;;;18.42;;
6547;SDS011;3307;52.416;16.862;2023-02-28T02:31:40;28.08;;;21.00;;
6547;SDS011;3307;52.416;16.862;2023-02-28T02:36:56;25.00;;;19.08;;
6547;SDS011;3307;52.416;16.862;2023-02-28T02:39:33;23.10;;;17.20;;
6547;SDS011;3307;52.416;16.862;2023-02-28T02:42:05;22.90;;;17.95;;
6547;SDS011;3307;52.416;16.862;2023-02-28T02:44:40;25.60;;;17.45;;
6547;SDS011;3307;52.416;16.862;2023-02-28T02:47:10;22.83;;;18.20;;
6547;SDS011;3307;52.416;16.862;2023-02-28T02:49:38;26.60;;;17.80;;
6547;SDS011;3307;52.416;16.862;2023-02-28T02:52:08;29.25;;;19.95;;
6547;SDS011;3307;52.416;16.862;2023-02-28T02:54:37;28.15;;;20.25;;
6547;SDS011;3307;52.416;16.862;2023-02-28T02:57:08;32.45;;;19.85;;
6547;SDS011;3307;52.416;16.862;2023-02-28T02:59:37;29.55;;;19.77;;
6547;SDS011;3307;52.416;16.862;2023-02-28T03:02:04;27.40;;;19.50;;
6547;SDS011;3307;52.416;16.862;2023-02-28T03:04:32;24.00;;;18.73;;
6547;SDS011;3307;52.416;16.862;2023-02-28T03:07:01;24.42;;;17.75;;
6547;SDS011;3307;52.416;16.862;2023-02-28T03:09:27;24.40;;;18.00;;
6547;SDS011;3307;52.416;16.862;2023-02-28T03:11:54;24.20;;;17.40;;
6547;SDS011;3307;52.416;16.862;2023-02-28T03:14:30;18.40;;;15.52;;
6547;SDS011;3307;52.416;16.862;2023-02-28T03:30:52;22.45;;;16.80;;
6547;SDS011;3307;52.416;16.862;2023-02-28T03:33:24;24.48;;;18.65;;
6547;SDS011;3307;52.416;16.862;2023-02-28T03:36:00;24.55;;;19.05;;
6547;SDS011;3307;52.416;16.862;2023-02-28T03:38:48;27.15;;;18.85;;
6547;SDS011;3307;52.416;16.862;2023-02-28T03:41:23;22.35;;;16.50;;
6547;SDS011;3307;52.416;16.862;2023-02-28T03:43:56;25.60;;;17.23;;
6547;SDS011;3307;52.416;16.862;2023-02-28T03:46:25;23.02;;;19.00;;
6547;SDS011;3307;52.416;16.862;2023-02-28T03:48:56;23.15;;;18.15;;
6547;SDS011;3307;52.416;16.862;2023-02-28T03:51:37;24.88;;;19.48;;
6547;SDS011;3307;52.416;16.862;2023-02-28T03:54:08;24.25;;;18.45;;
6547;SDS011;3307;52.416;16.862;2023-02-28T03:56:38;20.95;;;17.60;;
6547;SDS011;3307;52.416;16.862;2023-02-28T04:01:51;23.23;;;18.58;;
6547;SDS011;3307;52.416;16.862;2023-02-28T04:04:17;28.80;;;19.20;;
6547;SDS011;3307;52.416;16.862;2023-02-28T04:06:43;23.87;;;18.37;;
6547;SDS011;3307;52.416;16.862;2023-02-28T04:09:10;28.25;;;18.80;;
6547;SDS011;3307;52.416;16.862;2023-02-28T04:14:08;22.83;;;19.10;;
6547;SDS011;3307;52.416;16.862;2023-02-28T04:16:35;25.88;;;17.05;;
6547;SDS011;3307;52.416;16.862;2023-02-28T04:19:04;22.60;;;17.17;;
6547;SDS011;3307;52.416;16.862;2023-02-28T04:21:34;20.15;;;16.45;;
6547;SDS011;3307;52.416;16.862;2023-02-28T04:24:04;27.80;;;17.77;;
6547;SDS011;3307;52.416;16.862;2023-02-28T04:26:31;21.20;;;16.95;;
6547;SDS011;3307;52.416;16.862;2023-02-28T04:28:57;29.50;;;20.10;;
6547;SDS011;3307;52.416;16.862;2023-02-28T04:31:23;24.58;;;16.75;;
6547;SDS011;3307;52.416;16.862;2023-02-28T04:33:48;27.03;;;19.60;;
6547;SDS011;3307;52.416;16.862;2023-02-28T04:36:14;26.63;;;19.47;;
6547;SDS011;3307;52.416;16.862;2023-02-28T04:38:40;36.63;;;27.47;;
6547;SDS011;3307;52.416;16.862;2023-02-28T04:41:05;34.92;;;25.83;;
6547;SDS011;3307;52.416;16.862;2023-02-28T04:43:31;31.87;;;24.93;;
6547;SDS011;3307;52.416;16.862;2023-02-28T04:45:57;26.60;;;21.98;;
6547;SDS011;3307;52.416;16.862;2023-02-28T04:48:24;30.88;;;22.52;;
6547;SDS011;3307;52.416;16.862;2023-02-28T04:50:50;34.05;;;23.15;;
6547;SDS011;3307;52.416;16.862;2023-02-28T04:53:16;29.10;;;23.17;;
6547;SDS011;3307;52.416;16.862;2023-02-28T04:55:42;31.43;;;24.77;;
6547;SDS011;3307;52.416;16.862;2023-02-28T04:58:07;30.20;;;23.37;;
6547;SDS011;3307;52.416;16.862;2023-02-28T05:00:33;34.70;;;26.07;;
6547;SDS011;3307;52.416;16.862;2023-02-28T05:02:58;30.73;;;23.77;;
6547;SDS011;3307;52.416;16.862;2023-02-28T05:05:23;34.60;;;22.70;;
6547;SDS011;3307;52.416;16.862;2023-02-28T05:07:49;28.73;;;21.43;;
6547;SDS011;3307;52.416;16.862;2023-02-28T05:10:14;28.57;;;22.30;;
6547;SDS011;3307;52.416;16.862;2023-02-28T05:12:40;31.20;;;22.47;;
6547;SDS011;3307;52.416;16.862;2023-02-28T05:15:06;33.13;;;22.40;;
6547;SDS011;3307;52.416;16.862;2023-02-28T05:17:31;28.92;;;21.90;;
6547;SDS011;3307;52.416;16.862;2023-02-28T05:19:57;27.83;;;20.77;;
6547;SDS011;3307;52.416;16.862;2023-02-28T05:22:22;26.50;;;20.37;;
6547;SDS011;3307;52.416;16.862;2023-02-28T05:24:48;29.00;;;21.80;;
6547;SDS011;3307;52.416;16.862;2023-02-28T05:27:13;31.70;;;24.17;;
6547;SDS011;3307;52.416;16.862;2023-02-28T05:29:39;27.77;;;21.50;;
6547;SDS011;3307;52.416;16.862;2023-02-28T05:32:13;31.73;;;22.27;;
6547;SDS011;3307;52.416;16.862;2023-02-28T05:34:38;27.38;;;21.88;;
6547;SDS011;3307;52.416;16.862;2023-02-28T05:37:04;35.60;;;24.50;;
6547;SDS011;3307;52.416;16.862;2023-02-28T05:39:30;31.75;;;22.65;;
6547;SDS011;3307;52.416;16.862;2023-02-28T05:41:56;28.67;;;23.47;;
6547;SDS011;3307;52.416;16.862;2023-02-28T05:44:21;35.13;;;23.73;;
6547;SDS011;3307;52.416;16.862;2023-02-28T05:46:46;32.93;;;24.70;;
6547;SDS011;3307;52.416;16.862;2023-02-28T05:49:12;37.00;;;26.33;;
6547;SDS011;3307;52.416;16.862;2023-02-28T05:51:37;34.20;;;24.50;;
6547;SDS011;3307;52.416;16.862;2023-02-28T05:54:05;28.15;;;24.73;;
6547;SDS011;3307;52.416;16.862;2023-02-28T05:56:31;33.15;;;24.25;;
6547;SDS011;3307;52.416;16.862;2023-02-28T05:58:57;36.53;;;26.97;;
6547;SDS011;3307;52.416;16.862;2023-02-28T06:01:36;29.80;;;23.43;;
6547;SDS011;3307;52.416;16.862;2023-02-28T06:04:03;29.23;;;22.08;;
6547;SDS011;3307;52.416;16.862;2023-02-28T06:06:30;27.70;;;22.02;;
6547;SDS011;3307;52.416;16.862;2023-02-28T06:08:56;31.87;;;22.30;;
6547;SDS011;3307;52.416;16.862;2023-02-28T06:11:22;29.90;;;19.67;;
6547;SDS011;3307;52.416;16.862;2023-02-28T06:13:53;28.23;;;20.13;;
6547;SDS011;3307;52.416;16.862;2023-02-28T06:16:19;29.50;;;22.23;;
6547;SDS011;3307;52.416;16.862;2023-02-28T06:18:45;25.87;;;19.60;;
6547;SDS011;3307;52.416;16.862;2023-02-28T06:21:11;25.27;;;19.77;;
6547;SDS011;3307;52.416;16.862;2023-02-28T06:23:37;28.83;;;20.02;;
6547;SDS011;3307;52.416;16.862;2023-02-28T06:26:02;26.60;;;20.60;;
6547;SDS011;3307;52.416;16.862;2023-02-28T06:28:28;28.87;;;21.97;;
6547;SDS011;3307;52.416;16.862;2023-02-28T06:30:53;31.07;;;21.70;;
6547;SDS011;3307;52.416;16.862;2023-02-28T06:33:19;23.63;;;17.93;;
6547;SDS011;3307;52.416;16.862;2023-02-28T06:35:46;24.10;;;18.70;;
6547;SDS011;3307;52.416;16.862;2023-02-28T06:38:12;23.27;;;18.52;;
6547;SDS011;3307;52.416;16.862;2023-02-28T06:40:37;27.50;;;19.30;;
6547;SDS011;3307;52.416;16.862;2023-02-28T06:43:03;24.17;;;18.60;;
6547;SDS011;3307;52.416;16.862;2023-02-28T06:45:28;30.80;;;19.77;;
6547;SDS011;3307;52.416;16.862;2023-02-28T06:47:54;32.87;;;20.40;;
6547;SDS011;3307;52.416;16.862;2023-02-28T06:50:19;24.43;;;20.07;;
6547;SDS011;3307;52.416;16.862;2023-02-28T06:52:45;31.75;;;20.77;;
6547;SDS011;3307;52.416;16.862;2023-02-28T06:55:11;28.80;;;21.67;;
6547;SDS011;3307;52.416;16.862;2023-02-28T06:57:37;27.73;;;19.97;;
6547;SDS011;3307;52.416;16.862;2023-02-28T07:00:04;26.13;;;19.77;;
6547;SDS011;3307;52.416;16.862;2023-02-28T07:02:32;31.13;;;22.88;;
6547;SDS011;3307;52.416;16.862;2023-02-28T07:04:58;33.63;;;22.00;;
6547;SDS011;3307;52.416;16.862;2023-02-28T07:07:23;29.30;;;21.40;;
6547;SDS011;3307;52.416;16.862;2023-02-28T07:09:49;27.43;;;19.87;;
6547;SDS011;3307;52.416;16.862;2023-02-28T07:12:14;29.73;;;19.50;;
6547;SDS011;3307;52.416;16.862;2023-02-28T07:14:40;38.17;;;22.40;;
6547;SDS011;3307;52.416;16.862;2023-02-28T07:17:09;30.17;;;21.03;;
6547;SDS011;3307;52.416;16.862;2023-02-28T07:19:37;34.40;;;21.75;;
6547;SDS011;3307;52.416;16.862;2023-02-28T07:22:03;29.27;;;22.58;;
6547;SDS011;3307;52.416;16.862;2023-02-28T07:24:29;34.30;;;23.73;;
6547;SDS011;3307;52.416;16.862;2023-02-28T07:26:55;33.00;;;23.00;;
6547;SDS011;3307;52.416;16.862;2023-02-28T07:29:20;40.07;;;25.30;;
6547;SDS011;3307;52.416;16.862;2023-02-28T07:31:46;37.33;;;24.73;;
6547;SDS011;3307;52.416;16.862;2023-02-28T07:34:11;38.03;;;25.90;;
6547;SDS011;3307;52.416;16.862;2023-02-28T07:36:38;37.60;;;25.60;;
6547;SDS011;3307;52.416;16.862;2023-02-28T07:39:03;32.53;;;23.53;;
6547;SDS011;3307;52.416;16.862;2023-02-28T07:41:29;34.22;;;23.83;;
6547;SDS011;3307;52.416;16.862;2023-02-28T07:43:58;32.22;;;23.55;;
6547;SDS011;3307;52.416;16.862;2023-02-28T07:46:25;35.85;;;24.00;;
6547;SDS011;3307;52.416;16.862;2023-02-28T07:48:50;32.47;;;24.42;;
6547;SDS011;3307;52.416;16.862;2023-02-28T07:51:16;37.40;;;25.87;;
6547;SDS011;3307;52.416;16.862;2023-02-28T07:53:42;34.13;;;25.27;;
6547;SDS011;3307;52.416;16.862;2023-02-28T07:56:07;29.53;;;23.53;;
6547;SDS011;3307;52.416;16.862;2023-02-28T07:58:33;30.17;;;24.57;;
6547;SDS011;3307;52.416;16.862;2023-02-28T08:01:05;35.80;;;22.87;;
6547;SDS011;3307;52.416;16.862;2023-02-28T08:03:34;24.88;;;21.85;;
6547;SDS011;3307;52.416;16.862;2023-02-28T08:06:00;25.67;;;22.20;;
6547;SDS011;3307;52.416;16.862;2023-02-28T08:08:27;30.42;;;22.25;;
6547;SDS011;3307;52.416;16.862;2023-02-28T08:10:57;31.30;;;22.75;;
6547;SDS011;3307;52.416;16.862;2023-02-28T08:13:27;32.22;;;23.42;;
6547;SDS011;3307;52.416;16.862;2023-02-28T08:15:53;29.33;;;22.88;;
6547;SDS011;3307;52.416;16.862;2023-02-28T08:18:19;27.95;;;21.35;;
6547;SDS011;3307;52.416;16.862;2023-02-28T08:20:45;31.40;;;22.60;;
6547;SDS011;3307;52.416;16.862;2023-02-28T08:23:11;31.67;;;22.30;;
6547;SDS011;3307;52.416;16.862;2023-02-28T08:25:37;30.47;;;22.60;;
6547;SDS011;3307;52.416;16.862;2023-02-28T08:28:03;31.38;;;22.48;;
6547;SDS011;3307;52.416;16.862;2023-02-28T08:30:28;28.73;;;24.07;;
6547;SDS011;3307;52.416;16.862;2023-02-28T08:32:54;28.13;;;20.50;;
6547;SDS011;3307;52.416;16.862;2023-02-28T08:35:20;27.70;;;22.43;;
6547;SDS011;3307;52.416;16.862;2023-02-28T08:37:50;26.80;;;21.15;;
6547;SDS011;3307;52.416;16.862;2023-02-28T08:40:16;29.90;;;23.10;;
6547;SDS011;3307;52.416;16.862;2023-02-28T08:42:47;28.08;;;21.77;;
6547;SDS011;3307;52.416;16.862;2023-02-28T08:45:13;27.75;;;21.83;;
6547;SDS011;3307;52.416;16.862;2023-02-28T08:47:40;30.80;;;23.08;;
6547;SDS011;3307;52.416;16.862;2023-02-28T08:50:05;28.65;;;21.15;;
6547;SDS011;3307;52.416;16.862;2023-02-28T08:52:31;27.67;;;21.67;;
6547;SDS011;3307;52.416;16.862;2023-02-28T08:54:56;26.07;;;20.00;;
6547;SDS011;3307;52.416;16.862;2023-02-28T08:57:22;29.57;;;20.40;;
6547;SDS011;3307;52.416;16.862;2023-02-28T08:59:47;27.17;;;18.43;;
6547;SDS011;3307;52.416;16.862;2023-02-28T09:02:13;27.60;;;21.27;;
6547;SDS011;3307;52.416;16.862;2023-02-28T09:04:39;29.48;;;21.40;;
6547;SDS011;3307;52.416;16.862;2023-02-28T09:07:05;27.02;;;21.75;;
6547;SDS011;3307;52.416;16.862;2023-02-28T09:09:31;28.63;;;21.40;;
6547;SDS011;3307;52.416;16.862;2023-02-28T09:11:56;28.00;;;20.50;;
6547;SDS011;3307;52.416;16.862;2023-02-28T09:14:21;27.40;;;22.10;;
6547;SDS011;3307;52.416;16.862;2023-02-28T09:16:47;28.90;;;20.03;;
6547;SDS011;3307;52.416;16.862;2023-02-28T09:19:12;27.03;;;20.00;;
6547;SDS011;3307;52.416;16.862;2023-02-28T09:21:38;26.80;;;20.20;;
6547;SDS011;3307;52.416;16.862;2023-02-28T09:24:03;22.70;;;17.30;;
6547;SDS011;3307;52.416;16.862;2023-02-28T09:26:29;19.27;;;15.97;;
6547;SDS011;3307;52.416;16.862;2023-02-28T09:28:54;22.80;;;15.87;;
6547;SDS011;3307;52.416;16.862;2023-02-28T09:31:21;25.53;;;15.37;;
6547;SDS011;3307;52.416;16.862;2023-02-28T09:33:49;22.17;;;15.77;;
6547;SDS011;3307;52.416;16.862;2023-02-28T09:36:15;19.52;;;16.25;;
6547;SDS011;3307;52.416;16.862;2023-02-28T09:38:41;20.80;;;15.03;;
6547;SDS011;3307;52.416;16.862;2023-02-28T09:41:14;16.75;;;13.68;;
6547;SDS011;3307;52.416;16.862;2023-02-28T09:43:43;20.38;;;15.75;;
6547;SDS011;3307;52.416;16.862;2023-02-28T09:46:18;21.85;;;16.55;;
6547;SDS011;3307;52.416;16.862;2023-02-28T09:48:51;21.80;;;15.80;;
6547;SDS011;3307;52.416;16.862;2023-02-28T09:54:13;19.17;;;14.77;;
6547;SDS011;3307;52.416;16.862;2023-02-28T09:56:51;21.45;;;15.63;;
6547;SDS011;3307;52.416;16.862;2023-02-28T09:59:29;19.40;;;13.55;;
6547;SDS011;3307;52.416;16.862;2023-02-28T10:02:04;14.48;;;12.40;;
6547;SDS011;3307;52.416;16.862;2023-02-28T10:04:46;20.20;;;14.15;;
6547;SDS011;3307;52.416;16.862;2023-02-28T10:09:49;14.43;;;12.75;;
6547;SDS011;3307;52.416;16.862;2023-02-28T10:12:17;18.77;;;13.63;;
6547;SDS011;3307;52.416;16.862;2023-02-28T10:14:44;16.17;;;14.27;;
6547;SDS011;3307;52.416;16.862;2023-02-28T10:17:12;18.30;;;13.98;;
6547;SDS011;3307;52.416;16.862;2023-02-28T10:24:57;21.25;;;15.30;;
6547;SDS011;3307;52.416;16.862;2023-02-28T10:27:31;17.02;;;15.07;;
6547;SDS011;3307;52.416;16.862;2023-02-28T10:29:58;16.27;;;13.95;;
6547;SDS011;3307;52.416;16.862;2023-02-28T10:32:32;17.08;;;14.40;;
6547;SDS011;3307;52.416;16.862;2023-02-28T10:37:42;17.25;;;13.85;;
6547;SDS011;3307;52.416;16.862;2023-02-28T10:43:17;15.93;;;10.73;;
6547;SDS011;3307;52.416;16.862;2023-02-28T10:45:37;13.55;;;10.80;;
6547;SDS011;3307;52.416;16.862;2023-02-28T10:55:45;12.05;;;10.10;;
6547;SDS011;3307;52.416;16.862;2023-02-28T10:58:23;14.80;;;11.67;;
6547;SDS011;3307;52.416;16.862;2023-02-28T11:00:50;15.18;;;10.60;;
6547;SDS011;3307;52.416;16.862;2023-02-28T11:03:24;13.40;;;10.63;;
6547;SDS011;3307;52.416;16.862;2023-02-28T11:05:51;11.77;;;10.57;;
6547;SDS011;3307;52.416;16.862;2023-02-28T11:08:17;17.27;;;12.37;;
6547;SDS011;3307;52.416;16.862;2023-02-28T11:10:47;11.50;;;10.30;;
6547;SDS011;3307;52.416;16.862;2023-02-28T11:13:19;16.40;;;11.63;;
6547;SDS011;3307;52.416;16.862;2023-02-28T11:15:55;16.50;;;11.15;;
6547;SDS011;3307;52.416;16.862;2023-02-28T11:18:34;15.00;;;11.80;;
6547;SDS011;3307;52.416;16.862;2023-02-28T11:21:11;15.48;;;11.18;;
6547;SDS011;3307;52.416;16.862;2023-02-28T11:23:42;15.70;;;11.82;;
6547;SDS011;3307;52.416;16.862;2023-02-28T11:26:08;11.93;;;10.07;;
6547;SDS011;3307;52.416;16.862;2023-02-28T11:28:38;15.05;;;10.75;;
6547;SDS011;3307;52.416;16.862;2023-02-28T11:33:49;11.75;;;9.88;;
6547;SDS011;3307;52.416;16.862;2023-02-28T11:36:18;10.13;;;7.80;;
6547;SDS011;3307;52.416;16.862;2023-02-28T11:38:55;10.57;;;8.40;;
6547;SDS011;3307;52.416;16.862;2023-02-28T11:47:17;14.13;;;10.20;;
6547;SDS011;3307;52.416;16.862;2023-02-28T12:06:08;12.45;;;9.63;;
6547;SDS011;3307;52.416;16.862;2023-02-28T12:16:35;15.65;;;12.90;;
6547;SDS011;3307;52.416;16.862;2023-02-28T12:19:25;16.88;;;13.02;;
6547;SDS011;3307;52.416;16.862;2023-02-28T12:27:15;15.02;;;12.55;;
6547;SDS011;3307;52.416;16.862;2023-02-28T12:29:49;17.42;;;13.27;;
6547;SDS011;3307;52.416;16.862;2023-02-28T12:35:19;14.77;;;12.85;;
6547;SDS011;3307;52.416;16.862;2023-02-28T12:40:42;15.75;;;12.00;;
6547;SDS011;3307;52.416;16.862;2023-02-28T12:43:57;16.60;;;11.50;;
6547;SDS011;3307;52.416;16.862;2023-02-28T12:46:32;15.15;;;12.68;;
6547;SDS011;3307;52.416;16.862;2023-02-28T12:48:58;15.65;;;13.30;;
6547;SDS011;3307;52.416;16.862;2023-02-28T12:51:27;17.63;;;11.77;;
6547;SDS011;3307;52.416;16.862;2023-02-28T12:54:04;14.32;;;11.52;;
6547;SDS011;3307;52.416;16.862;2023-02-28T13:09:51;8.73;;;7.35;;
6547;SDS011;3307;52.416;16.862;2023-02-28T13:12:18;11.35;;;8.30;;
6547;SDS011;3307;52.416;16.862;2023-02-28T13:14:45;8.15;;;7.05;;
6547;SDS011;3307;52.416;16.862;2023-02-28T13:17:11;9.50;;;7.70;;
6547;SDS011;3307;52.416;16.862;2023-02-28T13:19:44;11.60;;;9.02;;
6547;SDS011;3307;52.416;16.862;2023-02-28T13:24:45;10.63;;;9.03;;
6547;SDS011;3307;52.416;16.862;2023-02-28T13:29:40;9.43;;;8.10;;
6547;SDS011;3307;52.416;16.862;2023-02-28T13:37:47;9.32;;;7.15;;
6547;SDS011;3307;52.416;16.862;2023-02-28T13:39:51;13.05;;;10.93;;
6547;SDS011;3307;52.416;16.862;2023-02-28T13:45:29;10.48;;;8.05;;
6547;SDS011;3307;52.416;16.862;2023-02-28T13:47:39;7.82;;;7.03;;
6547;SDS011;3307;52.416;16.862;2023-02-28T13:55:24;16.33;;;12.65;;
6547;SDS011;3307;52.416;16.862;2023-02-28T14:00:57;8.40;;;7.57;;
6547;SDS011;3307;52.416;16.862;2023-02-28T14:11:33;8.90;;;8.00;;
6547;SDS011;3307;52.416;16.862;2023-02-28T14:14:01;13.60;;;12.23;;
6547;SDS011;3307;52.416;16.862;2023-02-28T14:16:48;9.40;;;8.48;;
6547;SDS011;3307;52.416;16.862;2023-02-28T14:21:50;8.68;;;6.80;;
6547;SDS011;3307;52.416;16.862;2023-02-28T14:38:41;13.27;;;9.65;;
6547;SDS011;3307;52.416;16.862;2023-02-28T14:41:18;12.52;;;9.57;;
6547;SDS011;3307;52.416;16.862;2023-02-28T14:43:53;11.25;;;8.30;;
6547;SDS011;3307;52.416;16.862;2023-02-28T14:46:25;10.65;;;8.90;;
6547;SDS011;3307;52.416;16.862;2023-02-28T14:48:58;13.77;;;11.32;;
6547;SDS011;3307;52.416;16.862;2023-02-28T14:51:23;14.20;;;11.23;;
6547;SDS011;3307;52.416;16.862;2023-02-28T14:53:50;14.90;;;13.30;;
6547;SDS011;3307;52.416;16.862;2023-02-28T14:56:19;13.13;;;9.95;;
6547;SDS011;3307;52.416;16.862;2023-02-28T14:58:50;12.43;;;10.27;;
6547;SDS011;3307;52.416;16.862;2023-02-28T15:01:18;24.50;;;13.23;;
6547;SDS011;3307;52.416;16.862;2023-02-28T15:03:46;13.60;;;10.75;;
6547;SDS011;3307;52.416;16.862;2023-02-28T15:06:13;9.85;;;8.52;;
6547;SDS011;3307;52.416;16.862;2023-02-28T15:08:39;10.90;;;8.80;;
6547;SDS011;3307;52.416;16.862;2023-02-28T15:11:06;15.90;;;10.13;;
6547;SDS011;3307;52.416;16.862;2023-02-28T15:13:38;12.52;;;9.75;;
6547;SDS011;3307;52.416;16.862;2023-02-28T15:16:29;16.33;;;12.65;;
6547;SDS011;3307;52.416;16.862;2023-02-28T15:21:20;9.93;;;8.85;;
6547;SDS011;3307;52.416;16.862;2023-02-28T15:23:51;11.45;;;8.82;;
6547;SDS011;3307;52.416;16.862;2023-02-28T15:26:24;14.00;;;10.27;;
6547;SDS011;3307;52.416;16.862;2023-02-28T15:29:13;16.15;;;12.57;;
6547;SDS011;3307;52.416;16.862;2023-02-28T15:31:43;17.17;;;13.07;;
6547;SDS011;3307;52.416;16.862;2023-02-28T15:34:20;11.07;;;9.50;;
6547;SDS011;3307;52.416;16.862;2023-02-28T15:37:00;11.85;;;9.00;;
6547;SDS011;3307;52.416;16.862;2023-02-28T15:39:27;10.90;;;8.63;;
6547;SDS011;3307;52.416;16.862;2023-02-28T15:42:12;11.43;;;10.20;;
6547;SDS011;3307;52.416;16.862;2023-02-28T15:44:43;13.07;;;9.85;;
6547;SDS011;3307;52.416;16.862;2023-02-28T15:47:23;14.80;;;12.10;;
6547;SDS011;3307;52.416;16.862;2023-02-28T15:49:53;12.45;;;11.15;;
6547;SDS011;3307;52.416;16.862;2023-02-28T15:52:31;17.13;;;11.73;;
6547;SDS011;3307;52.416;16.862;2023-02-28T15:55:08;25.55;;;21.38;;
6547;SDS011;3307;52.416;16.862;2023-02-28T15:57:54;17.30;;;15.07;;
6547;SDS011;3307;52.416;16.862;2023-02-28T16:00:24;19.92;;;15.45;;
6547;SDS011;3307;52.416;16.862;2023-02-28T16:02:51;18.67;;;15.25;;
6547;SDS011;3307;52.416;16.862;2023-02-28T16:07:53;15.00;;;12.90;;
6547;SDS011;3307;52.416;16.862;2023-02-28T16:10:20;15.93;;;13.18;;
6547;SDS011;3307;52.416;16.862;2023-02-28T16:12:46;18.80;;;13.73;;
6547;SDS011;3307;52.416;16.862;2023-02-28T16:15:19;17.13;;;13.33;;
6547;SDS011;3307;52.416;16.862;2023-02-28T16:17:46;18.23;;;14.02;;
6547;SDS011;3307;52.416;16.862;2023-02-28T16:20:16;20.85;;;14.23;;
6547;SDS011;3307;52.416;16.862;2023-02-28T16:22:49;17.02;;;15.18;;
6547;SDS011;3307;52.416;16.862;2023-02-28T16:25:16;19.33;;;15.10;;
6547;SDS011;3307;52.416;16.862;2023-02-28T16:27:43;17.33;;;14.02;;
6547;SDS011;3307;52.416;16.862;2023-02-28T16:30:21;18.15;;;14.55;;
6547;SDS011;3307;52.416;16.862;2023-02-28T16:32:49;17.70;;;15.35;;
6547;SDS011;3307;52.416;16.862;2023-02-28T16:35:17;21.60;;;15.15;;
6547;SDS011;3307;52.416;16.862;2023-02-28T16:37:43;22.05;;;15.82;;
6547;SDS011;3307;52.416;16.862;2023-02-28T16:40:16;21.23;;;16.47;;
6547;SDS011;3307;52.416;16.862;2023-02-28T16:42:43;22.38;;;16.02;;
6547;SDS011;3307;52.416;16.862;2023-02-28T16:45:20;19.33;;;16.40;;
6547;SDS011;3307;52.416;16.862;2023-02-28T16:47:47;21.33;;;16.27;;
6547;SDS011;3307;52.416;16.862;2023-02-28T16:50:14;22.10;;;17.97;;
6547;SDS011;3307;52.416;16.862;2023-02-28T16:52:48;32.42;;;17.67;;
6547;SDS011;3307;52.416;16.862;2023-02-28T16:55:14;30.23;;;20.52;;
6547;SDS011;3307;52.416;16.862;2023-02-28T16:57:40;26.75;;;19.75;;
6547;SDS011;3307;52.416;16.862;2023-02-28T17:00:07;29.87;;;21.90;;
6547;SDS011;3307;52.416;16.862;2023-02-28T17:02:33;30.58;;;23.50;;
6547;SDS011;3307;52.416;16.862;2023-02-28T17:04:59;33.27;;;22.60;;
6547;SDS011;3307;52.416;16.862;2023-02-28T17:07:25;51.27;;;36.17;;
6547;SDS011;3307;52.416;16.862;2023-02-28T17:09:50;56.90;;;37.60;;
6547;SDS011;3307;52.416;16.862;2023-02-28T17:12:15;65.50;;;47.93;;
6547;SDS011;3307;52.416;16.862;2023-02-28T17:14:41;54.93;;;37.10;;
6547;SDS011;3307;52.416;16.862;2023-02-28T17:17:07;42.00;;;31.33;;
6547;SDS011;3307;52.416;16.862;2023-02-28T17:19:32;34.17;;;28.60;;
6547;SDS011;3307;52.416;16.862;2023-02-28T17:21:59;33.03;;;27.00;;
6547;SDS011;3307;52.416;16.862;2023-02-28T17:24:25;45.13;;;29.40;;
6547;SDS011;3307;52.416;16.862;2023-02-28T17:26:50;47.10;;;32.60;;
6547;SDS011;3307;52.416;16.862;2023-02-28T17:29:17;66.97;;;48.07;;
6547;SDS011;3307;52.416;16.862;2023-02-28T17:31:43;71.47;;;50.85;;